sensor_id;sensor_type;location;lat;lon;timestamp;pressure;altitude;pressure_sealevel;temperature;humidity
52975;BME280;38839;45.186;5.720;2023-04-15T00:02:15;98395.97;;;9.79;87.17
52975;BME280;38839;45.186;5.720;2023-04-15T00:04:46;98395.28;;;9.63;88.70
52975;BME280;38839;45.186;5.720;2023-04-15T00:07:12;98396.25;;;9.55;88.70
52975;BME280;38839;45.186;5.720;2023-04-15T00:09:38;98404.13;;;9.49;89.02
52975;BME280;38839;45.186;5.720;2023-04-15T00:12:04;98405.09;;;9.37;90.78
52975;BME280;38839;45.186;5.720;2023-04-15T00:14:29;98404.91;;;9.58;89.21
52975;BME280;38839;45.186;5.720;2023-04-15T00:16:55;98412.72;;;9.55;89.44
52975;BME280;38839;45.186;5.720;2023-04-15T00:19:22;98407.59;;;9.49;89.32
52975;BME280;38839;45.186;5.720;2023-04-15T00:21:48;98406.78;;;9.42;89.20
52975;BME280;38839;45.186;5.720;2023-04-15T00:24:13;98402.28;;;9.60;88.49
52975;BME280;38839;45.186;5.720;2023-04-15T00:26:39;98401.31;;;9.69;89.17
52975;BME280;38839;45.186;5.720;2023-04-15T00:29:05;98402.09;;;9.74;88.30
52975;BME280;38839;45.186;5.720;2023-04-15T00:31:30;98396.81;;;9.80;87.46
52975;BME280;38839;45.186;5.720;2023-04-15T00:33:56;98402.16;;;9.67;88.03
52975;BME280;38839;45.186;5.720;2023-04-15T00:36:22;98399.75;;;9.54;87.70
52975;BME280;38839;45.186;5.720;2023-04-15T00:38:48;98391.88;;;9.58;87.23
52975;BME280;38839;45.186;5.720;2023-04-15T00:41:14;98406.47;;;9.72;87.25
52975;BME280;38839;45.186;5.720;2023-04-15T00:43:39;98404.91;;;9.57;87.50
52975;BME280;38839;45.186;5.720;2023-04-15T00:46:05;98406.72;;;9.50;87.68
52975;BME280;38839;45.186;5.720;2023-04-15T00:48:31;98409.31;;;9.50;88.01
52975;BME280;38839;45.186;5.720;2023-04-15T00:50:57;98408.34;;;9.60;87.30
52975;BME280;38839;45.186;5.720;2023-04-15T00:53:23;98410.25;;;9.43;88.80
52975;BME280;38839;45.186;5.720;2023-04-15T00:55:49;98407.81;;;9.27;90.11
52975;BME280;38839;45.186;5.720;2023-04-15T00:58:15;98404.44;;;9.19;90.01
52975;BME280;38839;45.186;5.720;2023-04-15T01:00:41;98400.72;;;9.43;88.86
52975;BME280;38839;45.186;5.720;2023-04-15T01:03:07;98405.75;;;9.57;88.74
52975;BME280;38839;45.186;5.720;2023-04-15T01:05:32;98416.09;;;9.66;88.35
52975;BME280;38839;45.186;5.720;2023-04-15T01:07:58;98405.81;;;9.51;87.70
52975;BME280;38839;45.186;5.720;2023-04-15T01:10:24;98404.31;;;9.32;89.21
52975;BME280;38839;45.186;5.720;2023-04-15T01:12:49;98393.97;;;9.25;89.24
52975;BME280;38839;45.186;5.720;2023-04-15T01:15:15;98396.56;;;9.25;88.96
52975;BME280;38839;45.186;5.720;2023-04-15T01:17:40;98395.78;;;9.14;89.95
52975;BME280;38839;45.186;5.720;2023-04-15T01:20:07;98398.38;;;9.16;91.00
52975;BME280;38839;45.186;5.720;2023-04-15T01:22:34;98401.00;;;9.14;91.16
52975;BME280;38839;45.186;5.720;2023-04-15T01:25:09;98396.63;;;9.18;90.64
52975;BME280;38839;45.186;5.720;2023-04-15T01:27:38;98400.97;;;9.17;91.38
52975;BME280;38839;45.186;5.720;2023-04-15T01:30:06;98402.63;;;9.26;90.65
52975;BME280;38839;45.186;5.720;2023-04-15T01:32:32;98399.91;;;9.37;90.00
52975;BME280;38839;45.186;5.720;2023-04-15T01:34:57;98413.63;;;9.56;89.16
52975;BME280;38839;45.186;5.720;2023-04-15T01:37:23;98407.44;;;9.64;88.46
52975;BME280;38839;45.186;5.720;2023-04-15T01:39:48;98414.34;;;9.69;88.18
52975;BME280;38839;45.186;5.720;2023-04-15T01:42:14;98409.97;;;9.71;88.39
52975;BME280;38839;45.186;5.720;2023-04-15T01:44:39;98401.31;;;9.70;88.44
52975;BME280;38839;45.186;5.720;2023-04-15T01:47:04;98407.25;;;9.80;88.51
52975;BME280;38839;45.186;5.720;2023-04-15T01:49:31;98404.59;;;9.83;87.80
52975;BME280;38839;45.186;5.720;2023-04-15T01:51:56;98416.81;;;9.78;88.21
52975;BME280;38839;45.186;5.720;2023-04-15T01:54:22;98415.09;;;9.77;88.23
52975;BME280;38839;45.186;5.720;2023-04-15T01:56:47;98414.19;;;9.82;88.05
52975;BME280;38839;45.186;5.720;2023-04-15T01:59:13;98414.13;;;9.84;88.57
52975;BME280;38839;45.186;5.720;2023-04-15T02:01:38;98411.56;;;9.82;88.72
52975;BME280;38839;45.186;5.720;2023-04-15T02:04:05;98405.47;;;9.83;88.66
52975;BME280;38839;45.186;5.720;2023-04-15T02:06:31;98399.41;;;9.81;89.38
52975;BME280;38839;45.186;5.720;2023-04-15T02:08:56;98409.78;;;9.86;89.29
52975;BME280;38839;45.186;5.720;2023-04-15T02:11:23;98403.72;;;9.84;89.29
52975;BME280;38839;45.186;5.720;2023-04-15T02:13:48;98412.41;;;9.84;89.13
52975;BME280;38839;45.186;5.720;2023-04-15T02:16:19;98417.66;;;9.80;89.82
52975;BME280;38839;45.186;5.720;2023-04-15T02:18:45;98404.72;;;9.74;89.66
52975;BME280;38839;45.186;5.720;2023-04-15T02:21:11;98398.56;;;9.78;90.49
52975;BME280;38839;45.186;5.720;2023-04-15T02:23:36;98392.63;;;9.68;91.06
52975;BME280;38839;45.186;5.720;2023-04-15T02:26:02;98397.81;;;9.70;91.97
52975;BME280;38839;45.186;5.720;2023-04-15T02:28:27;98404.81;;;9.66;92.41
52975;BME280;38839;45.186;5.720;2023-04-15T02:30:53;98403.06;;;9.65;91.88
52975;BME280;38839;45.186;5.720;2023-04-15T02:33:21;98403.94;;;9.65;91.57
52975;BME280;38839;45.186;5.720;2023-04-15T02:35:46;98403.16;;;9.59;91.64
52975;BME280;38839;45.186;5.720;2023-04-15T02:38:12;98404.06;;;9.53;92.11
52975;BME280;38839;45.186;5.720;2023-04-15T02:40:38;98399.63;;;9.61;92.07
52975;BME280;38839;45.186;5.720;2023-04-15T02:43:04;98405.69;;;9.66;91.82
52975;BME280;38839;45.186;5.720;2023-04-15T02:45:31;98403.06;;;9.66;91.18
52975;BME280;38839;45.186;5.720;2023-04-15T02:47:57;98409.13;;;9.69;90.58
52975;BME280;38839;45.186;5.720;2023-04-15T02:50:22;98408.22;;;9.73;90.09
52975;BME280;38839;45.186;5.720;2023-04-15T02:52:49;98409.19;;;9.62;89.90
52975;BME280;38839;45.186;5.720;2023-04-15T02:55:15;98405.81;;;9.53;89.70
52975;BME280;38839;45.186;5.720;2023-04-15T02:57:42;98404.06;;;9.56;89.61
52975;BME280;38839;45.186;5.720;2023-04-15T03:00:08;98398.78;;;9.62;89.28
52975;BME280;38839;45.186;5.720;2023-04-15T03:02:36;98401.31;;;9.70;89.23
52975;BME280;38839;45.186;5.720;2023-04-15T03:05:02;98403.84;;;9.72;88.91
52975;BME280;38839;45.186;5.720;2023-04-15T03:07:28;98403.03;;;9.70;89.35
52975;BME280;38839;45.186;5.720;2023-04-15T03:09:53;98405.59;;;9.73;89.34
52975;BME280;38839;45.186;5.720;2023-04-15T03:12:19;98398.63;;;9.75;89.10
52975;BME280;38839;45.186;5.720;2023-04-15T03:14:44;98409.06;;;9.75;89.17
52975;BME280;38839;45.186;5.720;2023-04-15T03:17:10;98409.91;;;9.74;88.73
52975;BME280;38839;45.186;5.720;2023-04-15T03:19:36;98413.44;;;9.71;88.76
52975;BME280;38839;45.186;5.720;2023-04-15T03:22:01;98411.69;;;9.72;88.86
52975;BME280;38839;45.186;5.720;2023-04-15T03:24:26;98397.88;;;9.66;88.87
52975;BME280;38839;45.186;5.720;2023-04-15T03:26:53;98400.41;;;9.71;89.02
52975;BME280;38839;45.186;5.720;2023-04-15T03:29:19;98400.41;;;9.73;89.01
52975;BME280;38839;45.186;5.720;2023-04-15T03:31:45;98402.09;;;9.77;88.96
52975;BME280;38839;45.186;5.720;2023-04-15T03:34:10;98400.41;;;9.73;89.49
52975;BME280;38839;45.186;5.720;2023-04-15T03:36:36;98396.88;;;9.74;89.40
52975;BME280;38839;45.186;5.720;2023-04-15T03:39:01;98399.63;;;9.61;89.53
52975;BME280;38839;45.186;5.720;2023-04-15T03:41:27;98402.16;;;9.71;89.56
52975;BME280;38839;45.186;5.720;2023-04-15T03:43:53;98405.53;;;9.79;89.31
52975;BME280;38839;45.186;5.720;2023-04-15T03:46:18;98402.09;;;9.74;89.05
52975;BME280;38839;45.186;5.720;2023-04-15T03:48:44;98397.78;;;9.71;89.35
52975;BME280;38839;45.186;5.720;2023-04-15T03:51:09;98404.75;;;9.71;89.50
52975;BME280;38839;45.186;5.720;2023-04-15T03:53:35;98397.88;;;9.65;89.45
52975;BME280;38839;45.186;5.720;2023-04-15T03:56:01;98403.00;;;9.71;89.45
52975;BME280;38839;45.186;5.720;2023-04-15T03:58:26;98406.56;;;9.64;89.17
52975;BME280;38839;45.186;5.720;2023-04-15T04:00:52;98408.28;;;9.63;89.13
52975;BME280;38839;45.186;5.720;2023-04-15T04:03:17;98414.41;;;9.62;88.67
52975;BME280;38839;45.186;5.720;2023-04-15T04:05:43;98405.75;;;9.60;88.69
52975;BME280;38839;45.186;5.720;2023-04-15T04:08:08;98407.44;;;9.64;88.62
52975;BME280;38839;45.186;5.720;2023-04-15T04:10:34;98405.75;;;9.60;88.82
52975;BME280;38839;45.186;5.720;2023-04-15T04:12:59;98412.78;;;9.52;89.31
52975;BME280;38839;45.186;5.720;2023-04-15T04:15:26;98416.25;;;9.51;89.24
52975;BME280;38839;45.186;5.720;2023-04-15T04:17:51;98420.53;;;9.58;89.55
52975;BME280;38839;45.186;5.720;2023-04-15T04:20:16;98427.44;;;9.61;89.45
52975;BME280;38839;45.186;5.720;2023-04-15T04:22:42;98421.38;;;9.57;89.56
52975;BME280;38839;45.186;5.720;2023-04-15T04:25:07;98421.38;;;9.60;89.42
52975;BME280;38839;45.186;5.720;2023-04-15T04:27:34;98418.75;;;9.62;89.50
52975;BME280;38839;45.186;5.720;2023-04-15T04:30:00;98415.44;;;9.48;89.87
52975;BME280;38839;45.186;5.720;2023-04-15T04:32:25;98418.00;;;9.49;90.06
52975;BME280;38839;45.186;5.720;2023-04-15T04:34:51;98421.38;;;9.60;89.95
52975;BME280;38839;45.186;5.720;2023-04-15T04:37:16;98417.84;;;9.64;89.58
52975;BME280;38839;45.186;5.720;2023-04-15T04:39:42;98416.09;;;9.68;89.60
52975;BME280;38839;45.186;5.720;2023-04-15T04:42:07;98412.63;;;9.64;89.56
52975;BME280;38839;45.186;5.720;2023-04-15T04:44:33;98424.88;;;9.58;89.47
52975;BME280;38839;45.186;5.720;2023-04-15T04:46:58;98419.72;;;9.52;90.14
52975;BME280;38839;45.186;5.720;2023-04-15T04:49:23;98422.28;;;9.55;90.74
52975;BME280;38839;45.186;5.720;2023-04-15T04:51:49;98414.41;;;9.59;90.17
52975;BME280;38839;45.186;5.720;2023-04-15T04:54:14;98417.13;;;9.50;90.01
52975;BME280;38839;45.186;5.720;2023-04-15T04:56:40;98427.44;;;9.59;90.21
52975;BME280;38839;45.186;5.720;2023-04-15T04:59:05;98431.78;;;9.60;89.75
52975;BME280;38839;45.186;5.720;2023-04-15T05:01:31;98432.63;;;9.64;89.92
52975;BME280;38839;45.186;5.720;2023-04-15T05:03:58;98435.22;;;9.64;90.30
52975;BME280;38839;45.186;5.720;2023-04-15T05:06:24;98433.50;;;9.61;89.94
52975;BME280;38839;45.186;5.720;2023-04-15T05:08:50;98420.53;;;9.57;90.24
52975;BME280;38839;45.186;5.720;2023-04-15T05:11:16;98423.91;;;9.65;90.19
52975;BME280;38839;45.186;5.720;2023-04-15T05:13:41;98431.72;;;9.66;90.32
52975;BME280;38839;45.186;5.720;2023-04-15T05:16:07;98433.47;;;9.64;90.06
52975;BME280;38839;45.186;5.720;2023-04-15T05:18:33;98436.91;;;9.68;89.99
52975;BME280;38839;45.186;5.720;2023-04-15T05:20:59;98429.97;;;9.69;90.09
52975;BME280;38839;45.186;5.720;2023-04-15T05:23:25;98434.31;;;9.66;90.12
52975;BME280;38839;45.186;5.720;2023-04-15T05:25:50;98438.69;;;9.66;90.46
52975;BME280;38839;45.186;5.720;2023-04-15T05:28:16;98443.81;;;9.71;90.82
52975;BME280;38839;45.186;5.720;2023-04-15T05:30:41;98440.38;;;9.67;90.57
52975;BME280;38839;45.186;5.720;2023-04-15T05:33:07;98437.78;;;9.69;90.60
52975;BME280;38839;45.186;5.720;2023-04-15T05:35:33;98439.59;;;9.60;90.64
52975;BME280;38839;45.186;5.720;2023-04-15T05:37:58;98431.78;;;9.62;91.03
52975;BME280;38839;45.186;5.720;2023-04-15T05:40:24;98433.53;;;9.58;91.16
52975;BME280;38839;45.186;5.720;2023-04-15T05:42:49;98435.22;;;9.62;91.00
52975;BME280;38839;45.186;5.720;2023-04-15T05:45:14;98439.59;;;9.60;91.37
52975;BME280;38839;45.186;5.720;2023-04-15T05:47:40;98451.72;;;9.61;92.00
52975;BME280;38839;45.186;5.720;2023-04-15T05:50:05;98457.78;;;9.63;92.06
52975;BME280;38839;45.186;5.720;2023-04-15T05:52:31;98454.25;;;9.67;92.09
52975;BME280;38839;45.186;5.720;2023-04-15T05:54:56;98442.13;;;9.66;91.56
52975;BME280;38839;45.186;5.720;2023-04-15T05:57:22;98441.28;;;9.63;91.78
52975;BME280;38839;45.186;5.720;2023-04-15T05:59:47;98442.16;;;9.65;91.69
52975;BME280;38839;45.186;5.720;2023-04-15T06:02:13;98442.13;;;9.66;91.63
52975;BME280;38839;45.186;5.720;2023-04-15T06:04:38;98446.44;;;9.67;92.14
52975;BME280;38839;45.186;5.720;2023-04-15T06:07:04;98441.22;;;9.72;91.52
52975;BME280;38839;45.186;5.720;2023-04-15T06:09:30;98448.97;;;9.77;91.29
52975;BME280;38839;45.186;5.720;2023-04-15T06:11:55;98445.59;;;9.69;91.37
52975;BME280;38839;45.186;5.720;2023-04-15T06:14:22;98443.84;;;9.67;91.93
52975;BME280;38839;45.186;5.720;2023-04-15T06:16:47;98440.38;;;9.69;90.87
52975;BME280;38839;45.186;5.720;2023-04-15T06:19:13;98440.31;;;9.75;91.05
52975;BME280;38839;45.186;5.720;2023-04-15T06:21:38;98435.88;;;9.80;91.00
52975;BME280;38839;45.186;5.720;2023-04-15T06:24:04;98441.94;;;9.85;90.20
52975;BME280;38839;45.186;5.720;2023-04-15T06:26:29;98442.78;;;9.84;90.37
52975;BME280;38839;45.186;5.720;2023-04-15T06:28:55;98442.72;;;9.90;90.65
52975;BME280;38839;45.186;5.720;2023-04-15T06:31:21;98440.09;;;9.93;90.52
52975;BME280;38839;45.186;5.720;2023-04-15T06:33:46;98451.38;;;9.94;90.35
52975;BME280;38839;45.186;5.720;2023-04-15T06:36:12;98448.75;;;9.95;90.14
52975;BME280;38839;45.186;5.720;2023-04-15T06:38:37;98438.41;;;9.89;89.70
52975;BME280;38839;45.186;5.720;2023-04-15T06:41:03;98444.53;;;9.83;90.84
52975;BME280;38839;45.186;5.720;2023-04-15T06:43:29;98448.91;;;9.83;91.62
52975;BME280;38839;45.186;5.720;2023-04-15T06:45:55;98455.75;;;9.90;91.52
52975;BME280;38839;45.186;5.720;2023-04-15T06:48:21;98457.44;;;9.94;90.64
52975;BME280;38839;45.186;5.720;2023-04-15T06:50:46;98459.09;;;10.01;89.71
52975;BME280;38839;45.186;5.720;2023-04-15T06:53:13;98460.78;;;10.05;89.04
52975;BME280;38839;45.186;5.720;2023-04-15T06:55:38;98466.78;;;10.12;89.12
52975;BME280;38839;45.186;5.720;2023-04-15T06:58:04;98465.94;;;10.12;88.76
52975;BME280;38839;45.186;5.720;2023-04-15T07:00:30;98472.84;;;10.14;88.69
52975;BME280;38839;45.186;5.720;2023-04-15T07:02:55;98472.84;;;10.13;88.96
52975;BME280;38839;45.186;5.720;2023-04-15T07:05:21;98470.16;;;10.19;89.21
52975;BME280;38839;45.186;5.720;2023-04-15T07:07:46;98478.06;;;10.13;89.27
52975;BME280;38839;45.186;5.720;2023-04-15T07:10:11;98483.28;;;10.13;87.99
52975;BME280;38839;45.186;5.720;2023-04-15T07:12:39;98490.38;;;10.03;88.13
52975;BME280;38839;45.186;5.720;2023-04-15T07:15:04;98479.94;;;10.01;88.66
52975;BME280;38839;45.186;5.720;2023-04-15T07:17:31;98480.84;;;9.99;88.91
52975;BME280;38839;45.186;5.720;2023-04-15T07:19:56;98473.91;;;9.98;89.04
52975;BME280;38839;45.186;5.720;2023-04-15T07:22:21;98463.53;;;9.93;89.86
52975;BME280;38839;45.186;5.720;2023-04-15T07:24:47;98467.91;;;9.91;89.55
52975;BME280;38839;45.186;5.720;2023-04-15T07:27:12;98457.34;;;10.03;89.49
52975;BME280;38839;45.186;5.720;2023-04-15T07:29:38;98454.53;;;10.20;89.85
52975;BME280;38839;45.186;5.720;2023-04-15T07:32:03;98432.69;;;10.32;88.98
52975;BME280;38839;45.186;5.720;2023-04-15T07:34:29;98424.44;;;10.60;88.23
52975;BME280;38839;45.186;5.720;2023-04-15T07:36:54;98428.34;;;10.88;86.69
52975;BME280;38839;45.186;5.720;2023-04-15T07:39:19;98419.47;;;10.99;85.37
52975;BME280;38839;45.186;5.720;2023-04-15T07:41:45;98425.22;;;11.19;84.30
52975;BME280;38839;45.186;5.720;2023-04-15T07:44:10;98433.78;;;11.29;84.01
52975;BME280;38839;45.186;5.720;2023-04-15T07:46:36;98455.63;;;11.23;83.69
52975;BME280;38839;45.186;5.720;2023-04-15T07:49:02;98499.63;;;10.94;84.40
52975;BME280;38839;45.186;5.720;2023-04-15T07:51:27;98526.06;;;10.69;85.28
52975;BME280;38839;45.186;5.720;2023-04-15T07:53:54;98490.50;;;10.62;86.46
52975;BME280;38839;45.186;5.720;2023-04-15T07:56:19;98495.00;;;10.51;83.90
52975;BME280;38839;45.186;5.720;2023-04-15T07:58:45;98494.09;;;10.55;77.04
52975;BME280;38839;45.186;5.720;2023-04-15T08:01:10;98497.56;;;10.54;75.46
52975;BME280;38839;45.186;5.720;2023-04-15T08:03:36;98499.47;;;10.42;72.51
52975;BME280;38839;45.186;5.720;2023-04-15T08:06:01;98523.97;;;10.26;73.79
52975;BME280;38839;45.186;5.720;2023-04-15T08:08:27;98528.53;;;10.07;76.31
52975;BME280;38839;45.186;5.720;2023-04-15T08:10:52;98527.72;;;10.00;78.27
52975;BME280;38839;45.186;5.720;2023-04-15T08:13:18;98518.97;;;10.06;79.00
52975;BME280;38839;45.186;5.720;2023-04-15T08:15:43;98521.50;;;10.14;79.20
52975;BME280;38839;45.186;5.720;2023-04-15T08:18:09;98517.97;;;10.18;79.34
52975;BME280;38839;45.186;5.720;2023-04-15T08:20:35;98513.56;;;10.23;78.54
52975;BME280;38839;45.186;5.720;2023-04-15T08:23:00;98512.59;;;10.35;75.27
52975;BME280;38839;45.186;5.720;2023-04-15T08:25:27;98514.06;;;10.56;74.86
52975;BME280;38839;45.186;5.720;2023-04-15T08:27:54;98521.03;;;10.55;75.00
52975;BME280;38839;45.186;5.720;2023-04-15T08:30:21;98527.06;;;10.59;74.74
52975;BME280;38839;45.186;5.720;2023-04-15T08:32:48;98526.22;;;10.57;74.60
52975;BME280;38839;45.186;5.720;2023-04-15T08:35:13;98520.06;;;10.62;73.98
52975;BME280;38839;45.186;5.720;2023-04-15T08:37:39;98529.69;;;10.59;73.53
52975;BME280;38839;45.186;5.720;2023-04-15T08:40:05;98532.16;;;10.68;70.55
52975;BME280;38839;45.186;5.720;2023-04-15T08:42:36;98508.47;;;10.83;69.46
52975;BME280;38839;45.186;5.720;2023-04-15T08:45:03;98532.88;;;10.79;67.71
52975;BME280;38839;45.186;5.720;2023-04-15T08:47:30;98534.50;;;10.86;66.76
52975;BME280;38839;45.186;5.720;2023-04-15T08:49:58;98548.91;;;11.14;65.71
52975;BME280;38839;45.186;5.720;2023-04-15T08:52:27;98532.06;;;11.33;65.32
52975;BME280;38839;45.186;5.720;2023-04-15T08:54:56;98541.47;;;11.45;63.39
52975;BME280;38839;45.186;5.720;2023-04-15T08:57:27;98544.19;;;11.36;63.89
52975;BME280;38839;45.186;5.720;2023-04-15T08:59:54;98546.25;;;11.15;62.65
52975;BME280;38839;45.186;5.720;2023-04-15T09:02:20;98541.88;;;11.19;63.95
52975;BME280;38839;45.186;5.720;2023-04-15T09:04:47;98534.78;;;11.27;62.95
52975;BME280;38839;45.186;5.720;2023-04-15T09:07:12;98548.28;;;11.54;61.12
52975;BME280;38839;45.186;5.720;2023-04-15T09:09:38;98568.31;;;11.53;60.85
52975;BME280;38839;45.186;5.720;2023-04-15T09:12:07;98544.50;;;11.70;60.29
52975;BME280;38839;45.186;5.720;2023-04-15T09:14:33;98554.94;;;11.72;60.41
52975;BME280;38839;45.186;5.720;2023-04-15T09:17:01;98554.56;;;11.95;59.64
52975;BME280;38839;45.186;5.720;2023-04-15T09:19:26;98544.09;;;11.95;59.17
52975;BME280;38839;45.186;5.720;2023-04-15T09:21:57;98556.84;;;11.60;57.71
52975;BME280;38839;45.186;5.720;2023-04-15T09:24:23;98573.66;;;12.00;58.28
52975;BME280;38839;45.186;5.720;2023-04-15T09:26:52;98555.88;;;12.17;57.26
52975;BME280;38839;45.186;5.720;2023-04-15T09:29:18;98574.66;;;11.91;56.00
52975;BME280;38839;45.186;5.720;2023-04-15T09:31:44;98569.19;;;12.05;56.95
52975;BME280;38839;45.186;5.720;2023-04-15T09:34:09;98575.22;;;12.08;56.27
52975;BME280;38839;45.186;5.720;2023-04-15T09:39:15;98568.84;;;12.22;55.79
52975;BME280;38839;45.186;5.720;2023-04-15T09:41:41;98567.88;;;12.29;55.35
52975;BME280;38839;45.186;5.720;2023-04-15T09:44:21;98577.28;;;12.36;55.08
52975;BME280;38839;45.186;5.720;2023-04-15T09:46:47;98587.22;;;12.19;56.37
52975;BME280;38839;45.186;5.720;2023-04-15T09:49:12;98612.59;;;12.14;56.23
52975;BME280;38839;45.186;5.720;2023-04-15T09:51:38;98617.28;;;11.96;57.82
52975;BME280;38839;45.186;5.720;2023-04-15T09:54:04;98635.41;;;11.50;59.47
52975;BME280;38839;45.186;5.720;2023-04-15T09:56:38;98660.38;;;11.07;62.56
52975;BME280;38839;45.186;5.720;2023-04-15T09:59:09;98711.59;;;10.40;67.04
52975;BME280;38839;45.186;5.720;2023-04-15T10:01:35;98713.84;;;9.69;72.98
52975;BME280;38839;45.186;5.720;2023-04-15T10:04:04;98695.91;;;9.19;76.67
52975;BME280;38839;45.186;5.720;2023-04-15T10:06:29;98679.53;;;9.00;78.06
52975;BME280;38839;45.186;5.720;2023-04-15T10:08:58;98686.44;;;9.07;77.00
52975;BME280;38839;45.186;5.720;2023-04-15T10:11:27;98675.91;;;9.24;76.49
52975;BME280;38839;45.186;5.720;2023-04-15T10:13:53;98684.47;;;9.45;74.91
52975;BME280;38839;45.186;5.720;2023-04-15T10:16:20;98678.19;;;9.77;72.62
52975;BME280;38839;45.186;5.720;2023-04-15T10:18:49;98680.50;;;10.15;72.05
52975;BME280;38839;45.186;5.720;2023-04-15T10:21:15;98670.69;;;10.43;68.52
52975;BME280;38839;45.186;5.720;2023-04-15T10:23:44;98666.00;;;10.75;68.73
52975;BME280;38839;45.186;5.720;2023-04-15T10:26:11;98663.25;;;10.85;68.13
52975;BME280;38839;45.186;5.720;2023-04-15T10:28:38;98661.28;;;11.04;67.68
52975;BME280;38839;45.186;5.720;2023-04-15T10:31:04;98680.91;;;11.33;66.21
52975;BME280;38839;45.186;5.720;2023-04-15T10:33:30;98662.53;;;11.41;66.73
52975;BME280;38839;45.186;5.720;2023-04-15T10:35:56;98665.91;;;11.49;66.97
52975;BME280;38839;45.186;5.720;2023-04-15T10:41:14;98663.22;;;10.88;63.94
52975;BME280;38839;45.186;5.720;2023-04-15T10:43:52;98667.63;;;10.83;64.10
52975;BME280;38839;45.186;5.720;2023-04-15T10:49:13;98660.13;;;10.56;65.17
52975;BME280;38839;45.186;5.720;2023-04-15T10:51:45;98663.75;;;10.44;65.11
52975;BME280;38839;45.186;5.720;2023-04-15T10:54:15;98669.88;;;10.35;66.82
52975;BME280;38839;45.186;5.720;2023-04-15T10:56:43;98671.38;;;10.61;66.48
52975;BME280;38839;45.186;5.720;2023-04-15T10:59:08;98661.75;;;10.66;65.83
52975;BME280;38839;45.186;5.720;2023-04-15T11:01:53;98673.06;;;10.66;64.86
52975;BME280;38839;45.186;5.720;2023-04-15T11:04:55;98673.69;;;10.85;64.60
52975;BME280;38839;45.186;5.720;2023-04-15T11:12:42;98666.47;;;11.70;62.22
52975;BME280;38839;45.186;5.720;2023-04-15T11:15:27;98660.97;;;11.86;59.99
52975;BME280;38839;45.186;5.720;2023-04-15T11:17:57;98659.53;;;12.21;60.52
52975;BME280;38839;45.186;5.720;2023-04-15T11:20:23;98667.41;;;11.65;61.61
52975;BME280;38839;45.186;5.720;2023-04-15T11:22:52;98670.03;;;10.99;65.77
52975;BME280;38839;45.186;5.720;2023-04-15T11:25:27;98667.81;;;10.68;69.06
52975;BME280;38839;45.186;5.720;2023-04-15T11:27:54;98657.41;;;10.66;68.62
52975;BME280;38839;45.186;5.720;2023-04-15T11:30:22;98658.22;;;10.70;70.27
52975;BME280;38839;45.186;5.720;2023-04-15T11:32:54;98663.63;;;10.55;69.52
52975;BME280;38839;45.186;5.720;2023-04-15T11:35:20;98663.69;;;10.49;68.23
52975;BME280;38839;45.186;5.720;2023-04-15T11:37:47;98660.38;;;10.31;69.42
52975;BME280;38839;45.186;5.720;2023-04-15T11:40:14;98664.88;;;10.11;71.21
52975;BME280;38839;45.186;5.720;2023-04-15T11:42:42;98672.84;;;9.92;73.62
52975;BME280;38839;45.186;5.720;2023-04-15T11:45:14;98691.97;;;9.93;74.33
52975;BME280;38839;45.186;5.720;2023-04-15T11:47:41;98719.69;;;10.01;74.90
52975;BME280;38839;45.186;5.720;2023-04-15T11:50:14;98710.06;;;10.11;75.05
52975;BME280;38839;45.186;5.720;2023-04-15T11:52:51;98726.91;;;9.59;74.45
52975;BME280;38839;45.186;5.720;2023-04-15T11:55:16;98749.75;;;9.02;76.86
52975;BME280;38839;45.186;5.720;2023-04-15T11:57:41;98752.44;;;8.74;78.25
52975;BME280;38839;45.186;5.720;2023-04-15T12:00:07;98767.22;;;8.49;79.30
52975;BME280;38839;45.186;5.720;2023-04-15T12:02:35;98752.47;;;8.39;79.85
52975;BME280;38839;45.186;5.720;2023-04-15T12:05:05;98760.25;;;8.34;80.96
52975;BME280;38839;45.186;5.720;2023-04-15T12:07:30;98760.28;;;8.43;80.78
52975;BME280;38839;45.186;5.720;2023-04-15T12:09:57;98762.03;;;8.55;79.79
52975;BME280;38839;45.186;5.720;2023-04-15T12:12:28;98756.78;;;8.63;79.34
52975;BME280;38839;45.186;5.720;2023-04-15T12:14:55;98768.91;;;8.67;78.53
52975;BME280;38839;45.186;5.720;2023-04-15T12:17:22;98768.03;;;8.73;77.17
52975;BME280;38839;45.186;5.720;2023-04-15T12:19:47;98768.00;;;8.90;76.84
52975;BME280;38839;45.186;5.720;2023-04-15T12:22:15;98762.81;;;8.94;76.90
52975;BME280;38839;45.186;5.720;2023-04-15T12:24:42;98773.22;;;8.93;76.38
52975;BME280;38839;45.186;5.720;2023-04-15T12:27:11;98778.47;;;8.76;74.64
52975;BME280;38839;45.186;5.720;2023-04-15T12:29:38;98783.66;;;8.74;76.97
52975;BME280;38839;45.186;5.720;2023-04-15T12:34:51;98794.94;;;8.70;79.25
52975;BME280;38839;45.186;5.720;2023-04-15T12:37:17;98800.94;;;9.01;77.20
52975;BME280;38839;45.186;5.720;2023-04-15T12:39:45;98801.75;;;9.17;75.08
52975;BME280;38839;45.186;5.720;2023-04-15T12:42:13;98793.94;;;9.16;74.49
52975;BME280;38839;45.186;5.720;2023-04-15T12:44:38;98800.00;;;9.24;75.61
52975;BME280;38839;45.186;5.720;2023-04-15T12:47:05;98791.16;;;9.57;73.83
52975;BME280;38839;45.186;5.720;2023-04-15T12:49:31;98797.94;;;9.92;73.46
52975;BME280;38839;45.186;5.720;2023-04-15T12:51:58;98795.06;;;10.29;72.07
52975;BME280;38839;45.186;5.720;2023-04-15T12:54:24;98801.91;;;10.50;72.10
52975;BME280;38839;45.186;5.720;2023-04-15T12:56:51;98798.28;;;10.66;71.17
52975;BME280;38839;45.186;5.720;2023-04-15T12:59:17;98797.38;;;10.69;71.31
52975;BME280;38839;45.186;5.720;2023-04-15T13:01:43;98796.75;;;10.42;71.20
52975;BME280;38839;45.186;5.720;2023-04-15T13:04:09;98797.72;;;10.26;71.91
52975;BME280;38839;45.186;5.720;2023-04-15T13:06:34;98788.13;;;10.25;72.07
52975;BME280;38839;45.186;5.720;2023-04-15T13:09:00;98799.31;;;10.49;72.08
52975;BME280;38839;45.186;5.720;2023-04-15T13:11:27;98796.59;;;10.61;71.90
52975;BME280;38839;45.186;5.720;2023-04-15T13:13:56;98808.88;;;10.48;72.76
52975;BME280;38839;45.186;5.720;2023-04-15T13:16:22;98801.22;;;10.19;74.64
52975;BME280;38839;45.186;5.720;2023-04-15T13:18:48;98814.22;;;10.28;74.74
52975;BME280;38839;45.186;5.720;2023-04-15T13:21:14;98811.72;;;10.06;75.64